Time;durP1;ratioP1;P1;durP2;ratioP2;P2;SDS_P1;SDS_P2;PMS_P1;PMS_P2;Temp;Humidity;BMP_temperature;BMP_pressure;BME280_temperature;BME280_humidity;BME280_pressure;Samples;Min_cycle;Max_cycle;Signal;HPM_P1;HPM_P2
2023/04/08 00:00:01;;;;;;;17.33;12.45;;;;;;;9.21;68.37;100094.16;5025795;28;20033;-64
2023/04/08 00:02:27;;;;;;;19.90;12.00;;;;;;;9.18;68.04;100095.28;5023027;28;20156;-68
2023/04/08 00:04:53;;;;;;;19.42;12.60;;;;;;;9.31;67.00;100100.25;5021207;28;20061;-69
2023/04/08 00:07:18;;;;;;;17.77;12.55;;;;;;;9.52;66.25;100098.25;5020126;28;20034;-66
2023/04/08 00:09:44;;;;;;;17.45;11.70;;;;;;;9.59;65.62;100103.78;5025239;28;20037;-68
2023/04/08 00:12:09;;;;;;;20.38;12.57;;;;;;;9.85;64.08;100104.75;5025365;28;20045;-66
2023/04/08 00:14:37;;;;;;;16.10;12.63;;;;;;;10.17;63.49;100106.88;5021060;28;20036;-65
2023/04/08 00:17:02;;;;;;;18.05;12.48;;;;;;;10.46;61.43;100106.72;5019659;28;20113;-68
2023/04/08 00:19:28;;;;;;;19.38;12.68;;;;;;;10.68;60.91;100097.47;5021661;28;20038;-65
2023/04/08 00:21:53;;;;;;;18.40;12.32;;;;;;;10.61;60.79;100107.00;5026065;28;20407;-67
2023/04/08 00:24:19;;;;;;;16.42;12.07;;;;;;;10.46;60.02;100112.00;5022943;28;20238;-65
2023/04/08 00:26:44;;;;;;;16.80;11.63;;;;;;;10.12;60.78;100109.16;5020807;28;20217;-65
2023/04/08 00:29:10;;;;;;;18.17;12.00;;;;;;;9.84;63.02;100120.75;5021247;28;20111;-68
2023/04/08 00:31:35;;;;;;;17.58;11.60;;;;;;;9.86;64.09;100116.16;5020728;28;20064;-68
2023/04/08 00:34:01;;;;;;;18.63;12.85;;;;;;;9.65;63.92;100110.28;5021318;28;20065;-68
2023/04/08 00:36:27;;;;;;;18.70;13.52;;;;;;;9.58;65.57;100110.88;5021994;28;20223;-68
2023/04/08 00:38:52;;;;;;;16.92;11.90;;;;;;;9.33;67.17;100108.03;5020466;28;20034;-68
2023/04/08 00:41:18;;;;;;;17.55;12.90;;;;;;;9.23;69.30;100108.91;5024614;28;20049;-68
2023/04/08 00:43:43;;;;;;;17.77;12.27;;;;;;;9.25;70.03;100116.69;5023967;28;20074;-65
2023/04/08 00:46:09;;;;;;;16.27;11.73;;;;;;;9.25;70.92;100112.22;5022431;28;20037;-66
2023/04/08 00:48:35;;;;;;;17.08;11.48;;;;;;;9.05;72.51;100110.63;5024928;28;20076;-66
2023/04/08 00:51:01;;;;;;;18.63;13.10;;;;;;;9.04;73.64;100110.78;5023756;28;20038;-68
2023/04/08 00:53:26;;;;;;;20.92;12.70;;;;;;;8.94;75.87;100105.50;5021788;28;20033;-68
2023/04/08 00:55:51;;;;;;;19.67;13.57;;;;;;;8.81;77.86;100111.09;5023839;28;20046;-67
2023/04/08 00:58:17;;;;;;;18.13;12.65;;;;;;;8.96;78.43;100114.97;5020618;28;20526;-65
2023/04/08 01:00:51;;;;;;;17.65;11.68;;;;;;;8.88;79.80;100114.84;5023811;28;20243;-66
2023/04/08 01:03:26;;;;;;;20.80;12.32;;;;;;;8.89;80.01;100113.88;5020841;28;20033;-66
2023/04/08 01:06:19;;;;;;;18.58;12.73;;;;;;;8.71;81.87;100118.22;5024129;28;20042;-65
2023/04/08 01:08:45;;;;;;;18.17;11.52;;;;;;;8.81;81.06;100121.66;5024181;28;20232;-65
2023/04/08 01:11:13;;;;;;;19.65;11.45;;;;;;;8.57;83.35;100119.47;5024329;28;20304;-68
2023/04/08 01:13:41;;;;;;;19.27;11.73;;;;;;;8.81;81.73;100118.19;5023721;28;20041;-68
2023/04/08 01:16:13;;;;;;;19.30;12.05;;;;;;;8.83;81.38;100129.44;5021036;28;20050;-68
2023/04/08 01:18:42;;;;;;;18.08;11.75;;;;;;;8.90;82.76;100127.91;5022966;28;20042;-66
2023/04/08 01:21:10;;;;;;;19.80;12.45;;;;;;;9.01;81.59;100132.19;5023366;28;20041;-66
2023/04/08 01:24:02;;;;;;;21.52;12.60;;;;;;;8.65;84.51;100131.97;5021865;28;20447;-65
2023/04/08 01:26:28;;;;;;;19.10;12.43;;;;;;;8.52;87.83;100134.06;5024270;28;20034;-68
2023/04/08 01:28:58;;;;;;;20.80;13.35;;;;;;;8.54;88.51;100134.75;5028950;28;20033;-68
2023/04/08 01:31:25;;;;;;;22.35;12.52;;;;;;;8.59;88.17;100128.09;5021940;28;20037;-65
2023/04/08 01:33:51;;;;;;;19.13;12.35;;;;;;;8.57;89.62;100127.38;5021034;28;20220;-65
2023/04/08 01:36:19;;;;;;;20.75;12.65;;;;;;;8.47;91.20;100133.66;5024980;28;20038;-68
2023/04/08 01:38:46;;;;;;;22.45;13.65;;;;;;;8.51;91.94;100137.66;5024066;28;20030;-65
2023/04/08 01:41:12;;;;;;;21.83;12.82;;;;;;;8.37;93.47;100131.00;5019648;28;20053;-65
2023/04/08 01:43:43;;;;;;;20.90;12.73;;;;;;;8.37;93.89;100131.00;5021151;28;20095;-65
2023/04/08 01:46:10;;;;;;;19.38;12.68;;;;;;;8.46;93.46;100132.81;5018078;28;20038;-64
2023/04/08 01:48:37;;;;;;;20.52;13.85;;;;;;;8.57;92.54;100140.59;5020377;28;20034;-65
2023/04/08 01:51:05;;;;;;;23.80;13.98;;;;;;;8.51;93.67;100141.16;5023314;28;20443;-65
2023/04/08 01:53:31;;;;;;;21.90;14.35;;;;;;;8.48;94.59;100135.31;5022851;28;20147;-66
2023/04/08 01:56:05;;;;;;;21.33;14.45;;;;;;;8.62;93.87;100135.72;5020271;28;20464;-68
2023/04/08 01:58:36;;;;;;;24.48;14.48;;;;;;;8.49;95.46;100137.81;5021940;28;20120;-65
2023/04/08 02:01:04;;;;;;;23.42;14.18;;;;;;;8.52;94.60;100148.09;5022416;28;20227;-68
2023/04/08 02:03:31;;;;;;;22.80;14.45;;;;;;;8.44;95.87;100152.41;5025300;28;20045;-68
2023/04/08 02:05:56;;;;;;;23.38;13.95;;;;;;;8.47;96.39;100162.69;5023137;28;20046;-68
2023/04/08 02:08:22;;;;;;;23.98;15.05;;;;;;;8.46;95.95;100161.00;5025189;28;20036;-65
2023/04/08 02:10:47;;;;;;;23.85;14.77;;;;;;;8.40;97.21;100166.84;5022311;28;20091;-68
2023/04/08 02:13:13;;;;;;;20.15;12.63;;;;;;;8.34;97.49;100165.59;5022958;28;20060;-65
2023/04/08 02:15:50;;;;;;;25.08;14.23;;;;;;;8.38;97.76;100158.22;5023410;28;20270;-66
2023/04/08 02:18:24;;;;;;;22.67;13.70;;;;;;;8.32;98.38;100152.50;5022624;28;20038;-68
2023/04/08 02:21:13;;;;;;;25.85;15.20;;;;;;;8.31;99.33;100160.50;5020566;28;20350;-66
2023/04/08 02:23:40;;;;;;;22.83;13.65;;;;;;;8.24;98.73;100157.59;5020111;28;20042;-69
2023/04/08 02:26:12;;;;;;;24.38;14.48;;;;;;;8.29;99.23;100160.66;5019434;28;20061;-64
2023/04/08 02:28:40;;;;;;;22.23;13.40;;;;;;;8.21;99.95;100172.84;5023188;28;20335;-68
2023/04/08 02:31:09;;;;;;;21.65;13.55;;;;;;;8.39;99.02;100165.16;5022448;28;20033;-65
2023/04/08 02:33:37;;;;;;;23.20;14.13;;;;;;;8.52;97.50;100165.72;5026559;28;20097;-66
2023/04/08 02:36:04;;;;;;;23.50;14.77;;;;;;;8.54;96.76;100176.97;5019179;28;20037;-68
2023/04/08 02:38:30;;;;;;;25.15;14.93;;;;;;;8.35;98.73;100166.41;5020234;28;20030;-65
2023/04/08 02:40:55;;;;;;;24.00;14.25;;;;;;;8.47;98.65;100166.16;5022637;28;20038;-66
2023/04/08 02:43:25;;;;;;;22.25;14.35;;;;;;;8.57;97.94;100169.63;5022593;28;20034;-68
2023/04/08 02:45:51;;;;;;;21.83;14.48;;;;;;;8.51;99.04;100167.53;5024726;28;20034;-68
2023/04/08 02:48:16;;;;;;;26.55;15.82;;;;;;;8.48;99.53;100173.09;5025565;28;20037;-66
2023/04/08 02:50:42;;;;;;;25.70;14.68;;;;;;;8.53;98.94;100173.50;5023411;28;20066;-68
2023/04/08 02:53:08;;;;;;;25.15;15.98;;;;;;;8.47;99.30;100170.59;5024517;28;20441;-65
2023/04/08 02:55:34;;;;;;;27.40;15.95;;;;;;;8.69;97.65;100154.47;5025575;28;20060;-65
2023/04/08 02:57:59;;;;;;;27.98;15.82;;;;;;;8.72;97.67;100162.13;5024196;28;20255;-68
2023/04/08 03:00:25;;;;;;;24.95;15.57;;;;;;;8.44;99.19;100181.41;5023245;28;20462;-66
2023/04/08 03:02:50;;;;;;;27.63;15.75;;;;;;;8.70;97.98;100174.63;5022840;28;20046;-65
2023/04/08 03:05:16;;;;;;;26.20;15.32;;;;;;;8.72;97.33;100175.31;5026349;28;20124;-65
2023/04/08 03:07:41;;;;;;;26.02;15.85;;;;;;;9.01;95.54;100177.09;5026209;28;20033;-68
2023/04/08 03:10:07;;;;;;;25.13;15.38;;;;;;;8.89;95.13;100177.25;5022831;28;20080;-65
2023/04/08 03:12:33;;;;;;;26.33;16.02;;;;;;;9.23;93.45;100188.16;5024519;28;20033;-68
2023/04/08 03:14:59;;;;;;;25.75;15.52;;;;;;;9.47;91.57;100195.66;5024266;28;20302;-68
2023/04/08 03:17:25;;;;;;;26.52;17.02;;;;;;;9.65;89.38;100192.25;5027068;28;20037;-66
2023/04/08 03:19:50;;;;;;;24.90;16.10;;;;;;;9.89;88.50;100193.41;5026967;28;20340;-68
2023/04/08 03:22:16;;;;;;;25.30;16.08;;;;;;;9.84;87.19;100198.28;5022839;28;20045;-69
2023/04/08 03:24:41;;;;;;;26.48;15.95;;;;;;;9.87;86.80;100195.34;5022379;28;20037;-66
2023/04/08 03:27:07;;;;;;;27.25;16.38;;;;;;;9.70;87.42;100198.78;5027020;28;20029;-65
2023/04/08 03:29:33;;;;;;;26.15;15.35;;;;;;;9.69;88.29;100205.03;5025033;28;20212;-68
2023/04/08 03:31:58;;;;;;;23.67;15.10;;;;;;;9.45;88.91;100194.97;5024634;28;20203;-68
2023/04/08 03:34:23;;;;;;;24.23;15.15;;;;;;;9.34;90.53;100200.38;5027207;28;20038;-69
2023/04/08 03:36:49;;;;;;;28.75;17.27;;;;;;;8.99;92.94;100194.91;5026041;28;20045;-68
2023/04/08 03:39:14;;;;;;;25.42;15.07;;;;;;;8.74;95.57;100191.84;5024323;28;20030;-65
2023/04/08 03:41:40;;;;;;;27.73;16.75;;;;;;;8.57;98.04;100201.28;5021558;28;20052;-68
2023/04/08 03:44:05;;;;;;;25.45;15.73;;;;;;;8.56;97.65;100204.06;5025648;28;20037;-65
2023/04/08 03:46:31;;;;;;;26.25;16.00;;;;;;;8.55;97.90;100197.97;5024130;28;20051;-68
2023/04/08 03:48:56;;;;;;;32.40;16.33;;;;;;;8.41;99.25;100198.38;5022365;28;20065;-67
2023/04/08 03:51:21;;;;;;;28.27;16.17;;;;;;;8.48;100.00;100203.94;5022982;28;20040;-68
2023/04/08 03:53:48;;;;;;;29.55;15.50;;;;;;;8.53;98.98;100205.19;5021880;28;20369;-68
2023/04/08 03:56:13;;;;;;;25.90;14.63;;;;;;;8.36;99.73;100203.22;5023341;28;20045;-68
2023/04/08 03:58:39;;;;;;;29.15;16.00;;;;;;;8.27;100.00;100201.34;5021790;28;20108;-65
2023/04/08 04:01:04;;;;;;;28.63;14.98;;;;;;;8.20;100.00;100198.41;5023916;28;20389;-68
2023/04/08 04:03:30;;;;;;;27.00;16.15;;;;;;;8.02;100.00;100200.03;5024712;28;20346;-65
2023/04/08 04:05:56;;;;;;;30.52;15.57;;;;;;;8.03;100.00;100201.69;5022176;28;20111;-68
2023/04/08 04:08:21;;;;;;;28.90;16.25;;;;;;;7.99;100.00;100202.94;5021820;28;20067;-65
2023/04/08 04:10:47;;;;;;;31.10;16.98;;;;;;;8.15;100.00;100211.16;5024140;28;20046;-68
2023/04/08 04:13:12;;;;;;;29.25;16.50;;;;;;;8.11;100.00;100212.41;5024597;28;20069;-67
2023/04/08 04:15:39;;;;;;;29.23;17.38;;;;;;;8.19;100.00;100212.56;5021281;28;20060;-69
2023/04/08 04:18:06;;;;;;;29.23;16.65;;;;;;;8.28;100.00;100217.03;5024614;28;20057;-65
2023/04/08 04:20:31;;;;;;;26.65;16.10;;;;;;;8.36;100.00;100223.50;5023661;28;20033;-68
2023/04/08 04:22:57;;;;;;;28.98;17.40;;;;;;;8.45;100.00;100225.31;5021304;28;20091;-68
2023/04/08 04:25:23;;;;;;;30.40;16.95;;;;;;;8.45;100.00;100217.41;5022611;28;20038;-68
2023/04/08 04:27:48;;;;;;;28.63;17.05;;;;;;;8.46;100.00;100225.19;5026378;28;20045;-66
2023/04/08 04:30:14;;;;;;;34.08;17.48;;;;;;;8.61;100.00;100223.81;5026518;28;20036;-65
2023/04/08 04:32:42;;;;;;;26.42;16.08;;;;;;;8.55;99.63;100224.34;5025137;28;20042;-68
2023/04/08 04:35:09;;;;;;;31.92;16.52;;;;;;;8.57;99.63;100218.94;5022195;28;20037;-68
2023/04/08 04:37:35;;;;;;;29.90;16.70;;;;;;;8.50;98.52;100226.56;5021465;28;20080;-69
2023/04/08 04:40:04;;;;;;;30.92;17.60;;;;;;;8.46;99.77;100232.25;5024160;28;20034;-65
2023/04/08 04:42:30;;;;;;;28.15;16.50;;;;;;;8.38;99.99;100229.47;5024856;28;20261;-66
2023/04/08 04:44:56;;;;;;;28.15;16.85;;;;;;;8.39;99.90;100223.22;5022423;28;20029;-68
2023/04/08 04:47:22;;;;;;;28.02;17.33;;;;;;;8.48;99.28;100223.25;5020501;28;20033;-68
2023/04/08 04:49:47;;;;;;;30.80;18.13;;;;;;;8.38;99.07;100218.91;5022978;28;20037;-68
2023/04/08 04:52:13;;;;;;;30.88;16.67;;;;;;;8.57;98.85;100230.34;5024785;28;20049;-68
2023/04/08 04:54:38;;;;;;;34.65;17.45;;;;;;;8.56;99.14;100230.47;5021275;28;20048;-66
2023/04/08 04:57:04;;;;;;;30.15;17.65;;;;;;;8.49;98.71;100232.81;5025167;28;20042;-65
2023/04/08 04:59:29;;;;;;;29.48;17.60;;;;;;;8.43;97.94;100236.00;5023447;28;20041;-65
2023/04/08 05:01:58;;;;;;;31.33;18.02;;;;;;;8.43;98.74;100225.44;5022165;28;20046;-66
2023/04/08 05:04:24;;;;;;;31.90;17.50;;;;;;;8.34;99.67;100228.06;5026900;28;20390;-68
2023/04/08 05:06:49;;;;;;;30.40;17.40;;;;;;;8.33;99.88;100235.16;5022192;28;20284;-65
2023/04/08 05:09:15;;;;;;;37.38;17.85;;;;;;;8.36;98.47;100237.53;5019405;28;20054;-65
2023/04/08 05:11:41;;;;;;;30.52;17.45;;;;;;;8.25;98.72;100232.28;5022133;28;20064;-68
2023/04/08 05:14:06;;;;;;;27.08;15.48;;;;;;;8.38;98.73;100232.09;5022876;28;20068;-68
2023/04/08 05:16:32;;;;;;;34.38;18.13;;;;;;;8.33;97.98;100232.50;5020504;28;20056;-65
2023/04/08 05:18:58;;;;;;;28.27;16.50;;;;;;;8.40;98.33;100236.28;5026370;28;20086;-67
2023/04/08 05:21:25;;;;;;;31.20;17.73;;;;;;;8.75;97.00;100237.56;5029245;28;20041;-67
2023/04/08 05:23:51;;;;;;;31.33;17.45;;;;;;;8.72;97.45;100236.03;5039312;28;20034;-65
2023/04/08 05:26:20;;;;;;;28.17;16.55;;;;;;;8.61;96.43;100242.28;5038870;28;20041;-67
2023/04/08 05:28:46;;;;;;;26.60;16.17;;;;;;;8.63;97.16;100245.63;5038607;28;20081;-65
2023/04/08 05:31:11;;;;;;;25.48;15.80;;;;;;;8.53;94.85;100255.34;5039139;28;20095;-64
2023/04/08 05:33:37;;;;;;;29.20;15.35;;;;;;;8.31;96.20;100266.06;5038757;28;20037;-64
2023/04/08 05:36:02;;;;;;;24.10;14.52;;;;;;;8.34;97.23;100272.94;5039038;28;20324;-67
2023/04/08 05:38:28;;;;;;;28.80;16.70;;;;;;;8.48;96.95;100267.28;5038899;28;20355;-67
2023/04/08 05:40:53;;;;;;;29.77;16.38;;;;;;;8.32;96.50;100271.22;5038960;28;20058;-67
2023/04/08 05:43:19;;;;;;;28.65;16.20;;;;;;;8.31;97.84;100266.88;5038221;28;20033;-65
2023/04/08 05:45:45;;;;;;;32.20;16.42;;;;;;;8.32;95.35;100265.94;5038092;28;20302;-64
2023/04/08 05:48:11;;;;;;;28.55;16.50;;;;;;;8.34;97.45;100271.13;5037599;28;20056;-67
2023/04/08 05:50:36;;;;;;;28.77;16.75;;;;;;;8.53;95.94;100265.88;5037351;28;20099;-65
2023/04/08 05:53:02;;;;;;;32.92;18.85;;;;;;;8.66;97.03;100260.34;5038620;28;20075;-64
2023/04/08 05:55:27;;;;;;;28.02;15.95;;;;;;;8.61;93.81;100252.84;5035286;28;20040;-64
2023/04/08 05:57:53;;;;;;;27.10;16.13;;;;;;;8.64;94.25;100257.84;5028710;28;20025;-64
2023/04/08 06:00:19;;;;;;;27.20;16.85;;;;;;;8.83;92.95;100259.66;5038444;28;20036;-67
2023/04/08 06:02:45;;;;;;;26.05;17.00;;;;;;;8.83;94.43;100253.56;5037754;28;20041;-67
2023/04/08 06:05:10;;;;;;;26.55;14.95;;;;;;;8.77;92.60;100248.81;5037283;28;20068;-67
2023/04/08 06:07:36;;;;;;;29.42;17.50;;;;;;;8.79;91.19;100254.81;5038512;28;20037;-67
2023/04/08 06:10:02;;;;;;;27.48;15.88;;;;;;;8.73;92.09;100250.91;5037856;28;20025;-66
2023/04/08 06:12:27;;;;;;;33.50;17.15;;;;;;;8.71;91.44;100258.13;5037502;28;20087;-65
2023/04/08 06:14:54;;;;;;;30.40;15.85;;;;;;;8.86;89.63;100261.19;5026046;28;20034;-65
2023/04/08 06:17:20;;;;;;;31.20;16.13;;;;;;;9.09;90.63;100267.88;5019649;28;20049;-68
2023/04/08 06:19:45;;;;;;;26.05;14.23;;;;;;;9.09;89.83;100269.69;5018816;28;20363;-66
2023/04/08 06:22:11;;;;;;;27.98;16.17;;;;;;;9.18;90.14;100266.19;5018582;28;20060;-68
2023/04/08 06:24:36;;;;;;;31.25;17.13;;;;;;;9.15;88.28;100267.31;5018212;28;20034;-66
2023/04/08 06:27:02;;;;;;;29.95;16.30;;;;;;;9.19;88.29;100270.50;5018035;28;20056;-69
2023/04/08 06:29:28;;;;;;;27.58;15.98;;;;;;;9.22;87.97;100264.94;5017876;28;20308;-69
2023/04/08 06:31:54;;;;;;;26.55;16.45;;;;;;;9.22;86.66;100264.94;5017399;28;20215;-69
2023/04/08 06:34:20;;;;;;;26.88;16.13;;;;;;;9.55;85.21;100258.38;5017138;28;20026;-63
2023/04/08 06:36:46;;;;;;;24.80;15.10;;;;;;;9.60;86.25;100261.44;5017613;28;20034;-66
2023/04/08 06:39:11;;;;;;;27.85;15.98;;;;;;;9.60;83.07;100262.25;5017687;28;20824;-66
2023/04/08 06:41:37;;;;;;;28.02;15.23;;;;;;;9.93;84.22;100260.06;5017787;28;20124;-65
2023/04/08 06:44:03;;;;;;;27.73;14.60;;;;;;;9.72;85.49;100262.09;5017215;28;20343;-65
2023/04/08 06:46:28;;;;;;;27.95;15.50;;;;;;;9.76;84.85;100268.75;5017509;28;20034;-69
2023/04/08 06:48:54;;;;;;;25.77;15.00;;;;;;;9.97;83.85;100258.78;5018588;28;20042;-66
2023/04/08 06:51:20;;;;;;;27.98;15.00;;;;;;;10.12;81.44;100261.78;5018299;28;20034;-66
2023/04/08 06:53:45;;;;;;;25.50;15.25;;;;;;;10.20;83.79;100265.41;5017957;28;20336;-65
2023/04/08 06:56:10;;;;;;;26.77;15.50;;;;;;;10.01;82.07;100261.97;5018320;28;20146;-68
2023/04/08 06:58:36;;;;;;;27.33;15.82;;;;;;;10.05;82.40;100269.47;5018502;28;20252;-66
2023/04/08 07:01:02;;;;;;;27.10;15.68;;;;;;;9.80;83.58;100262.19;5018751;28;20372;-68
2023/04/08 07:03:27;;;;;;;24.63;14.75;;;;;;;9.84;85.25;100259.13;5018062;28;20030;-66
2023/04/08 07:05:53;;;;;;;29.05;15.68;;;;;;;9.76;84.76;100263.47;5016428;28;20340;-66
2023/04/08 07:08:18;;;;;;;27.20;16.00;;;;;;;9.76;85.68;100266.94;5016413;28;20355;-66
2023/04/08 07:10:44;;;;;;;26.73;15.50;;;;;;;9.72;85.04;100260.28;5018302;28;21465;-66
2023/04/08 07:13:09;;;;;;;23.80;14.75;;;;;;;10.03;85.10;100257.38;5018176;28;20225;-64
2023/04/08 07:15:35;;;;;;;27.02;16.02;;;;;;;10.07;83.65;100264.88;5017328;28;20335;-66
2023/04/08 07:18:01;;;;;;;26.45;15.05;;;;;;;9.87;84.48;100263.28;5017852;28;20315;-66
2023/04/08 07:20:27;;;;;;;25.73;15.35;;;;;;;9.93;83.45;100268.84;5015943;28;20026;-63
2023/04/08 07:22:52;;;;;;;28.08;16.23;;;;;;;10.15;82.93;100264.16;5017794;28;20053;-68
2023/04/08 07:25:18;;;;;;;25.95;14.93;;;;;;;10.33;83.07;100265.06;5015877;28;20041;-67
2023/04/08 07:27:43;;;;;;;26.23;14.75;;;;;;;10.55;83.64;100267.31;5015671;28;20042;-64
2023/04/08 07:30:09;;;;;;;26.67;15.50;;;;;;;10.31;81.70;100267.03;5016007;28;20299;-67
2023/04/08 07:32:35;;;;;;;25.85;15.18;;;;;;;10.61;80.64;100265.91;5017551;28;20038;-68
2023/04/08 07:35:01;;;;;;;29.83;16.60;;;;;;;10.65;79.36;100267.25;5020901;28;20220;-63
2023/04/08 07:37:27;;;;;;;27.30;15.73;;;;;;;10.84;80.80;100264.47;5022308;28;20036;-66
2023/04/08 07:39:52;;;;;;;24.75;14.48;;;;;;;10.84;80.70;100258.34;5035998;28;20355;-64
2023/04/08 07:42:17;;;;;;;24.58;16.20;;;;;;;10.76;79.67;100271.50;5040441;28;20041;-67
2023/04/08 07:44:44;;;;;;;25.08;15.30;;;;;;;10.74;81.28;100261.06;5040254;28;20043;-66
2023/04/08 07:47:10;;;;;;;24.85;15.98;;;;;;;10.94;82.33;100263.56;5040331;28;20033;-66
2023/04/08 07:49:36;;;;;;;22.83;15.15;;;;;;;10.91;78.95;100256.75;5040393;28;20035;-66
2023/04/08 07:52:02;;;;;;;25.92;16.00;;;;;;;11.08;80.34;100255.91;5040901;28;20040;-67
2023/04/08 07:54:27;;;;;;;27.00;15.55;;;;;;;11.04;79.72;100266.97;5040811;28;20323;-68
2023/04/08 07:56:52;;;;;;;29.92;17.38;;;;;;;11.16;79.43;100261.28;5040508;28;20037;-68
2023/04/08 07:59:18;;;;;;;30.10;17.73;;;;;;;11.40;80.43;100263.28;5040024;28;20059;-66
2023/04/08 08:01:43;;;;;;;28.35;16.70;;;;;;;11.32;77.86;100265.88;5039776;28;20204;-66
2023/04/08 08:04:09;;;;;;;27.08;15.88;;;;;;;11.17;78.16;100268.25;5040526;28;20033;-69
2023/04/08 08:06:34;;;;;;;26.27;15.63;;;;;;;11.25;77.78;100266.66;5040548;28;20274;-68
2023/04/08 08:09:00;;;;;;;26.60;15.88;;;;;;;11.45;77.93;100262.84;5040600;28;20347;-69
2023/04/08 08:11:28;;;;;;;27.58;17.08;;;;;;;11.43;75.81;100270.09;5039866;28;20259;-69
2023/04/08 08:13:54;;;;;;;25.00;16.17;;;;;;;11.74;75.63;100263.38;5039454;28;20040;-66
2023/04/08 08:16:20;;;;;;;23.52;16.58;;;;;;;11.77;73.14;100264.88;5039669;28;20057;-69
2023/04/08 08:18:45;;;;;;;26.83;17.65;;;;;;;11.75;76.55;100270.34;5039784;28;20041;-66
2023/04/08 08:21:10;;;;;;;31.92;18.80;;;;;;;11.58;77.25;100265.94;5039411;28;20037;-69
2023/04/08 08:23:36;;;;;;;29.20;16.80;;;;;;;11.70;73.79;100267.34;5040142;28;20038;-69
2023/04/08 08:26:05;;;;;;;26.15;16.13;;;;;;;11.89;72.38;100260.16;5040037;28;20068;-69
2023/04/08 08:28:30;;;;;;;27.10;16.33;;;;;;;12.06;76.00;100267.22;5039291;28;20227;-69
2023/04/08 08:30:56;;;;;;;28.52;18.08;;;;;;;12.36;72.59;100265.84;5039034;28;20052;-69
2023/04/08 08:33:22;;;;;;;25.77;16.60;;;;;;;12.28;71.68;100263.16;5039238;28;20029;-66
2023/04/08 08:35:47;;;;;;;27.85;17.90;;;;;;;12.49;69.32;100278.72;5039668;28;20037;-67
2023/04/08 08:38:13;;;;;;;28.58;17.55;;;;;;;12.31;69.63;100269.00;5040430;28;20227;-67
2023/04/08 08:40:38;;;;;;;30.00;17.67;;;;;;;12.74;66.51;100267.16;5039174;28;20048;-66
2023/04/08 08:43:04;;;;;;;27.73;16.73;;;;;;;12.87;67.64;100261.34;5039201;28;20315;-64
2023/04/08 08:45:29;;;;;;;22.92;15.50;;;;;;;12.92;64.70;100256.38;5031226;28;20044;-70
2023/04/08 08:47:56;;;;;;;25.50;17.67;;;;;;;12.98;65.77;100256.53;5018868;28;20045;-66
2023/04/08 08:50:21;;;;;;;28.65;17.40;;;;;;;13.08;65.16;100257.22;5018192;28;20406;-67
2023/04/08 08:52:51;;;;;;;25.33;16.60;;;;;;;13.03;66.55;100248.91;5018393;28;20042;-67
2023/04/08 08:55:20;;;;;;;27.20;15.40;;;;;;;12.55;68.09;100254.16;5019471;28;20280;-67
2023/04/08 08:57:49;;;;;;;23.00;15.55;;;;;;;12.68;67.99;100254.50;5017017;28;20355;-63
2023/04/08 09:00:15;;;;;;;25.23;15.85;;;;;;;12.80;66.03;100245.22;5018592;28;20080;-67
2023/04/08 09:02:40;;;;;;;25.35;14.18;;;;;;;12.66;65.99;100248.53;5017179;28;20041;-67
2023/04/08 09:05:06;;;;;;;23.27;13.65;;;;;;;12.82;63.42;100245.06;5016043;28;20038;-66
2023/04/08 09:07:35;;;;;;;24.50;14.32;;;;;;;13.12;64.93;100247.09;5017909;28;20034;-64
2023/04/08 09:10:01;;;;;;;23.50;14.57;;;;;;;13.27;61.94;100248.09;5021358;28;20025;-66
2023/04/08 09:12:27;;;;;;;22.65;14.95;;;;;;;13.36;60.98;100244.44;5017503;28;20105;-67
2023/04/08 09:15:09;;;;;;;20.70;14.20;;;;;;;13.22;64.09;100242.47;5018290;28;20033;-63
2023/04/08 09:17:39;;;;;;;21.23;14.57;;;;;;;13.20;62.74;100246.28;5018746;28;20049;-67
2023/04/08 09:20:12;;;;;;;21.80;14.02;;;;;;;13.49;62.51;100232.44;5018598;28;20033;-66
2023/04/08 09:23:06;;;;;;;19.13;12.37;;;;;;;12.89;61.50;100246.91;5016340;28;20053;-64
2023/04/08 09:25:32;;;;;;;18.42;12.55;;;;;;;13.01;63.17;100245.59;5024628;28;20694;-66
2023/04/08 09:27:59;;;;;;;21.73;13.43;;;;;;;12.92;63.72;100243.91;5016736;28;20089;-64
2023/04/08 09:30:26;;;;;;;19.08;13.02;;;;;;;13.14;62.40;100245.09;5016677;28;20267;-64
2023/04/08 09:32:54;;;;;;;18.10;13.13;;;;;;;13.32;60.33;100239.63;5017342;28;20344;-67
2023/04/08 09:35:20;;;;;;;19.05;12.80;;;;;;;13.37;62.87;100234.63;5017062;28;20030;-64
2023/04/08 09:37:46;;;;;;;19.83;11.93;;;;;;;13.40;60.14;100232.47;5017511;28;20033;-64
2023/04/08 09:40:14;;;;;;;21.40;12.48;;;;;;;13.43;61.78;100233.97;5016513;28;20088;-63
2023/04/08 09:42:43;;;;;;;18.42;12.85;;;;;;;13.21;61.88;100235.47;5017848;28;20069;-67
2023/04/08 09:45:10;;;;;;;20.55;13.05;;;;;;;13.15;60.46;100229.97;5016301;28;20339;-64
2023/04/08 09:47:54;;;;;;;17.60;11.15;;;;;;;13.39;58.17;100228.16;5017792;28;20235;-65
2023/04/08 09:50:25;;;;;;;13.88;10.57;;;;;;;13.35;59.15;100226.00;5016394;28;20045;-67
2023/04/08 09:52:56;;;;;;;15.88;12.10;;;;;;;13.50;59.80;100220.81;5016737;28;20071;-67
2023/04/08 09:55:24;;;;;;;16.65;12.02;;;;;;;13.36;57.50;100227.66;5015768;28;20347;-66
2023/04/08 09:57:54;;;;;;;17.40;12.32;;;;;;;13.32;60.75;100227.16;5017859;28;20033;-69
2023/04/08 10:00:23;;;;;;;20.02;13.38;;;;;;;13.65;58.89;100227.13;5018113;28;20071;-69
2023/04/08 10:03:01;;;;;;;19.50;13.05;;;;;;;13.61;57.88;100228.47;5017381;28;20060;-69
2023/04/08 10:05:28;;;;;;;18.63;12.68;;;;;;;13.69;58.49;100225.78;5017150;28;20048;-65
2023/04/08 10:07:55;;;;;;;21.08;14.00;;;;;;;13.82;58.13;100219.94;5016828;28;20057;-65
2023/04/08 10:10:21;;;;;;;15.05;11.25;;;;;;;14.10;57.53;100226.47;5017169;28;20030;-69
2023/04/08 10:12:48;;;;;;;19.60;11.90;;;;;;;14.45;56.10;100227.00;5017206;28;20813;-69
2023/04/08 10:15:26;;;;;;;16.80;12.65;;;;;;;14.12;55.24;100226.31;5016753;28;20041;-65
2023/04/08 10:18:19;;;;;;;19.65;13.82;;;;;;;14.04;56.42;100214.69;5016046;28;20263;-69
2023/04/08 10:20:46;;;;;;;21.23;12.48;;;;;;;14.01;56.57;100217.69;5015222;28;20227;-69
2023/04/08 10:23:14;;;;;;;22.58;13.80;;;;;;;14.17;55.59;100206.13;5017685;28;20041;-66
2023/04/08 10:25:41;;;;;;;19.15;13.02;;;;;;;14.51;55.71;100210.31;5017704;28;20038;-66
2023/04/08 10:28:10;;;;;;;18.45;12.40;;;;;;;14.67;55.04;100204.91;5017048;28;20025;-64
2023/04/08 10:30:40;;;;;;;22.60;14.30;;;;;;;14.71;55.06;100200.88;5018199;28;20073;-66
2023/04/08 10:33:14;;;;;;;18.80;12.65;;;;;;;14.71;55.18;100202.72;5018195;28;20030;-66
2023/04/08 10:35:43;;;;;;;17.33;13.13;;;;;;;14.55;54.17;100204.47;5017543;28;20037;-63
2023/04/08 10:38:08;;;;;;;18.23;12.93;;;;;;;14.33;57.23;100203.38;5016825;28;20241;-66
2023/04/08 10:40:38;;;;;;;18.10;13.52;;;;;;;14.67;54.36;100191.59;5015736;28;20116;-66
2023/04/08 10:43:06;;;;;;;17.20;12.75;;;;;;;14.88;52.44;100189.09;5015983;28;20155;-65
2023/04/08 10:45:32;;;;;;;20.00;14.40;;;;;;;15.05;53.25;100183.63;5016346;28;20038;-63
2023/04/08 10:48:11;;;;;;;20.65;14.63;;;;;;;15.33;52.97;100180.16;5016890;28;20257;-66
2023/04/08 10:50:36;;;;;;;19.52;14.02;;;;;;;15.43;52.23;100174.56;5016271;28;20054;-66
2023/04/08 10:53:02;;;;;;;19.77;13.90;;;;;;;15.35;54.64;100174.66;5015879;28;20240;-66
2023/04/08 10:55:28;;;;;;;18.23;13.38;;;;;;;14.78;53.21;100167.19;5015920;28;20041;-66
2023/04/08 10:57:53;;;;;;;19.40;12.73;;;;;;;14.83;54.81;100169.31;5016982;28;20072;-66
2023/04/08 11:00:33;;;;;;;19.27;12.43;;;;;;;15.11;53.38;100167.72;5015660;28;20036;-63
2023/04/08 11:03:18;;;;;;;18.25;12.05;;;;;;;15.14;53.97;100167.34;5016116;28;20328;-66
2023/04/08 11:05:44;;;;;;;16.42;12.82;;;;;;;14.90;52.71;100168.41;5016723;28;20288;-65
2023/04/08 11:08:09;;;;;;;16.58;11.88;;;;;;;14.94;55.17;100166.22;5019483;28;20037;-63
2023/04/08 11:10:38;;;;;;;16.77;11.82;;;;;;;14.92;56.51;100165.56;5019795;28;20088;-66
2023/04/08 11:13:07;;;;;;;18.90;12.68;;;;;;;14.69;53.88;100157.59;5019899;28;20049;-66